KHDN/HDN METAR and TAF weather

Enter ICAO airport designator
Station Type Date Time Source
KHDN METAR 2020/01/23 20:56 UTC NOAA

KHDN 232056Z AUTO 22003KT 8SM -SN OVC023 M01/M04 A3021 RMK AO2 UPE41SNB41 SLP259 P0000 60000 T10111039 58013 FZRANO


Station Type Date Time Source
KHDN Decoded METAR 2020/01/23 20:56 UTC NOAA

Hayden, Yampa Valley Airport, CO, United States (KHDN) 40-29N 107-13W
Jan 23, 2020 - 03:56 PM EST / 2020.01.23 2056 UTC
Wind: from the SW (220 degrees) at 3 MPH (3 KT):0
Visibility: 8 mile(s):0
Sky conditions: overcast
Weather: light snow
Precipitation last hour: A trace
Temperature: 30.0 F (-1.1 C)
Dew Point: 25.0 F (-3.9 C)
Relative Humidity: 81%
Pressure (altimeter): 30.21 in. Hg (1023 hPa)
Pressure tendency: 0.04 inches (1.3 hPa) lower than three hours ago
ob: KHDN 232056Z AUTO 22003KT 8SM -SN OVC023 M01/M04 A3021 RMK AO2 UPE41SNB41 SLP259 P0000 60000 T10111039 58013 FZRANO
cycle: 21

Station Type Date Time Source
KHDN TAF 2020/01/23 18:58 UTC NOAA

TAF KHDN 231756Z 2318/2418 19003KT 4SM -SN VCSH BKN009 OVC020
TEMPO 2318/2320 1SM -SN BKN020
FM232000 26006KT P6SM VCSH OVC022
FM240000 25005KT P6SM BKN035
FM240300 VRB04KT P6SM OVC024
FM241400 VRB04KT P6SM BKN028

Example: see airport list